Terminal Aerodrome Forecast
Issued by NWS Louisville, KY

Home | Current Version | Previous Version | Text Only | Print | Product List | Glossary On
Versions: 1 2 3 4 5 6 7 8 9 10 11 12 13 14 15 16 17
000
FTUS43 KLMK 270500
TAFLEX
TAF
KLEX 270524Z 2706/2806 22008KT P6SM SCT090 BKN120
     FM271300 25017G26KT P6SM BKN040
     FM280400 32008KT P6SM SCT050=

USA.gov is the U.S. government's official web portal to all federal, state and local government web resources and services.